Orbital elements of FENGYUN 1C DEB
| Launched | 9 May 1999 |
| Flight ended | – |
| Launch site | Taiyuan Space Center, PRC |
| Owner | People's Republic of China |
| NORAD ID | 31625 |
| Date fetched |
Epoch osculation |
Inc. [°] |
Ecc. | RA asc node [hr] |
Arg Peri. [°] |
Mean anom [°] |
Mean motion [rev/day] |
Abs. mag |
| Date fetched |
Epoch osculation |
Inc. [°] |
Ecc. | RA asc node [hr] |
Arg Peri. [°] |
Mean anom [°] |
Mean motion [rev/day] |
Abs. mag |
| 2026 May 05 17:57 | 2026 May 04 12:26:13 | 98.7981 | 0.01473 | 14.8824 | 300.8000 | 69.8441 | 14.55710 | – |
| 2026 May 04 17:57 | 2026 Apr 30 12:47:21 | 98.7976 | 0.01474 | 14.6024 | 313.0198 | 69.8441 | 14.55710 | – |
| 2026 May 03 17:57 | 2026 Apr 30 12:47:21 | 98.7976 | 0.01474 | 14.6024 | 313.0198 | 69.8441 | 14.55710 | – |
| 2026 May 02 17:57 | 2026 Apr 30 12:47:21 | 98.7976 | 0.01474 | 14.6024 | 313.0198 | 69.8441 | 14.55710 | – |
| 2026 May 01 17:56 | 2026 Apr 30 12:47:21 | 98.7976 | 0.01474 | 14.6024 | 313.0198 | 69.8441 | 14.55710 | – |
| 2026 Apr 30 17:56 | 2026 Apr 30 12:47:21 | 98.7976 | 0.01474 | 14.6024 | 313.0198 | 69.8441 | 14.55710 | – |
| 2026 Apr 29 17:57 | 2026 Apr 23 05:58:00 | 98.7973 | 0.01478 | 14.0906 | 335.3125 | 69.8441 | 14.55710 | – |
| 2026 Apr 28 17:56 | 2026 Apr 23 05:58:00 | 98.7973 | 0.01478 | 14.0906 | 335.3125 | 69.8441 | 14.55710 | – |
| 2026 Apr 27 17:58 | 2026 Apr 23 05:58:00 | 98.7973 | 0.01478 | 14.0906 | 335.3125 | 69.8441 | 14.55710 | – |
| 2026 Apr 26 17:58 | 2026 Apr 23 05:58:00 | 98.7973 | 0.01478 | 14.0906 | 335.3125 | 69.8441 | 14.55710 | – |
| 2026 Apr 25 17:58 | 2026 Apr 23 05:58:00 | 98.7973 | 0.01478 | 14.0906 | 335.3125 | 69.8441 | 14.55710 | – |
| 2026 Apr 24 17:59 | 2026 Apr 23 05:58:00 | 98.7973 | 0.01478 | 14.0906 | 335.3125 | 69.8441 | 14.55710 | – |
| 2026 Apr 23 17:57 | 2026 Apr 19 12:49:57 | 98.7970 | 0.01480 | 13.8297 | 346.6572 | 69.8441 | 14.55710 | – |
| 2026 Apr 22 17:57 | 2026 Apr 19 12:49:57 | 98.7970 | 0.01480 | 13.8297 | 346.6572 | 69.8441 | 14.55710 | – |
| 2026 Apr 21 17:57 | 2026 Apr 19 12:49:57 | 98.7970 | 0.01480 | 13.8297 | 346.6572 | 69.8441 | 14.55710 | – |
| 2026 Apr 20 17:57 | 2026 Apr 19 12:49:57 | 98.7970 | 0.01480 | 13.8297 | 346.6572 | 69.8441 | 14.55710 | – |
| 2026 Apr 19 17:58 | 2026 Apr 19 12:49:57 | 98.7970 | 0.01480 | 13.8297 | 346.6572 | 69.8441 | 14.55710 | – |
| 2026 Apr 18 17:56 | 2026 Apr 13 00:50:29 | 98.7966 | 0.01484 | 13.3731 | 6.4748 | 69.8441 | 14.55710 | – |
| 2026 Apr 16 17:57 | 2026 Apr 13 00:50:29 | 98.7966 | 0.01484 | 13.3731 | 6.4748 | 69.8441 | 14.55710 | – |
| 2026 Apr 14 17:57 | 2026 Apr 13 00:50:29 | 98.7966 | 0.01484 | 13.3731 | 6.4748 | 69.8441 | 14.55710 | – |
| 2026 Apr 13 17:57 | 2026 Apr 13 00:50:29 | 98.7966 | 0.01484 | 13.3731 | 6.4748 | 69.8441 | 14.55710 | – |
| 2026 Apr 12 17:57 | 2026 Apr 07 05:36:57 | 98.7965 | 0.01488 | 12.9656 | 24.1227 | 69.8441 | 14.55710 | – |
| 2026 Apr 11 17:57 | 2026 Apr 07 05:36:57 | 98.7965 | 0.01488 | 12.9656 | 24.1227 | 69.8441 | 14.55710 | – |
| 2026 Apr 10 17:58 | 2026 Apr 07 05:36:57 | 98.7965 | 0.01488 | 12.9656 | 24.1227 | 69.8441 | 14.55710 | – |
| 2026 Apr 09 18:01 | 2026 Apr 07 05:36:57 | 98.7965 | 0.01488 | 12.9656 | 24.1227 | 69.8441 | 14.55710 | – |
| 2026 Apr 08 17:57 | 2026 Apr 07 05:36:57 | 98.7965 | 0.01488 | 12.9656 | 24.1227 | 69.8441 | 14.55710 | – |